sensor_id;sensor_type;location;lat;lon;timestamp;temperature;humidity
25450;DHT22;13371;52.080;5.624;2023-03-14T00:01:19;13.70;99.90
25450;DHT22;13371;52.080;5.624;2023-03-14T00:03:45;13.50;99.90
25450;DHT22;13371;52.080;5.624;2023-03-14T00:06:12;13.50;99.90
25450;DHT22;13371;52.080;5.624;2023-03-14T00:08:38;13.50;99.90
25450;DHT22;13371;52.080;5.624;2023-03-14T00:11:09;13.40;99.90
25450;DHT22;13371;52.080;5.624;2023-03-14T00:13:35;13.50;99.90
25450;DHT22;13371;52.080;5.624;2023-03-14T00:16:06;13.30;99.80
25450;DHT22;13371;52.080;5.624;2023-03-14T00:18:32;13.40;99.90
25450;DHT22;13371;52.080;5.624;2023-03-14T00:20:59;13.60;99.10
25450;DHT22;13371;52.080;5.624;2023-03-14T00:23:25;13.70;98.70
25450;DHT22;13371;52.080;5.624;2023-03-14T00:25:51;13.80;98.30
25450;DHT22;13371;52.080;5.624;2023-03-14T00:28:18;13.80;98.10
25450;DHT22;13371;52.080;5.624;2023-03-14T00:30:44;13.60;98.20
25450;DHT22;13371;52.080;5.624;2023-03-14T00:33:10;13.60;98.20
25450;DHT22;13371;52.080;5.624;2023-03-14T00:35:35;13.70;98.00
25450;DHT22;13371;52.080;5.624;2023-03-14T00:38:01;13.60;97.60
25450;DHT22;13371;52.080;5.624;2023-03-14T00:40:26;13.40;97.90
25450;DHT22;13371;52.080;5.624;2023-03-14T00:42:52;13.40;98.10
25450;DHT22;13371;52.080;5.624;2023-03-14T00:45:17;13.40;97.90
25450;DHT22;13371;52.080;5.624;2023-03-14T00:47:43;13.50;97.60
25450;DHT22;13371;52.080;5.624;2023-03-14T00:50:11;13.30;98.10
25450;DHT22;13371;52.080;5.624;2023-03-14T00:52:37;13.40;97.70
25450;DHT22;13371;52.080;5.624;2023-03-14T00:55:03;13.20;98.10
25450;DHT22;13371;52.080;5.624;2023-03-14T00:57:28;13.20;98.40
25450;DHT22;13371;52.080;5.624;2023-03-14T00:59:54;13.30;97.90
25450;DHT22;13371;52.080;5.624;2023-03-14T01:02:20;13.30;98.00
25450;DHT22;13371;52.080;5.624;2023-03-14T01:04:48;13.10;98.10
25450;DHT22;13371;52.080;5.624;2023-03-14T01:07:14;12.70;98.60
25450;DHT22;13371;52.080;5.624;2023-03-14T01:09:40;12.70;98.90
25450;DHT22;13371;52.080;5.624;2023-03-14T01:12:05;12.30;99.60
25450;DHT22;13371;52.080;5.624;2023-03-14T01:14:31;12.30;99.90
25450;DHT22;13371;52.080;5.624;2023-03-14T01:16:57;12.10;99.90
25450;DHT22;13371;52.080;5.624;2023-03-14T01:19:26;12.20;99.90
25450;DHT22;13371;52.080;5.624;2023-03-14T01:21:52;12.50;99.90
25450;DHT22;13371;52.080;5.624;2023-03-14T01:24:18;12.00;99.90
25450;DHT22;13371;52.080;5.624;2023-03-14T01:26:44;11.80;99.90
25450;DHT22;13371;52.080;5.624;2023-03-14T01:29:09;11.90;99.90
25450;DHT22;13371;52.080;5.624;2023-03-14T01:31:35;12.10;99.90
25450;DHT22;13371;52.080;5.624;2023-03-14T01:34:01;11.90;99.90
25450;DHT22;13371;52.080;5.624;2023-03-14T01:36:27;11.60;99.90
25450;DHT22;13371;52.080;5.624;2023-03-14T01:38:52;11.40;99.90
25450;DHT22;13371;52.080;5.624;2023-03-14T01:41:20;11.40;99.90
25450;DHT22;13371;52.080;5.624;2023-03-14T01:43:47;11.20;99.90
25450;DHT22;13371;52.080;5.624;2023-03-14T01:49:03;11.20;99.90
25450;DHT22;13371;52.080;5.624;2023-03-14T01:57:07;11.90;99.90
25450;DHT22;13371;52.080;5.624;2023-03-14T01:59:34;11.70;99.90
25450;DHT22;13371;52.080;5.624;2023-03-14T02:02:01;11.60;99.90
25450;DHT22;13371;52.080;5.624;2023-03-14T02:04:30;11.70;99.90
25450;DHT22;13371;52.080;5.624;2023-03-14T02:07:03;11.60;99.90
25450;DHT22;13371;52.080;5.624;2023-03-14T02:09:30;11.70;99.90
25450;DHT22;13371;52.080;5.624;2023-03-14T02:11:56;11.70;99.90
25450;DHT22;13371;52.080;5.624;2023-03-14T02:14:30;11.40;99.90
25450;DHT22;13371;52.080;5.624;2023-03-14T02:16:56;11.30;99.90
25450;DHT22;13371;52.080;5.624;2023-03-14T02:22:12;11.10;99.90
25450;DHT22;13371;52.080;5.624;2023-03-14T02:27:25;11.10;99.90
25450;DHT22;13371;52.080;5.624;2023-03-14T02:32:21;11.10;99.90
25450;DHT22;13371;52.080;5.624;2023-03-14T02:34:50;11.20;99.90
25450;DHT22;13371;52.080;5.624;2023-03-14T02:37:19;11.20;99.90
25450;DHT22;13371;52.080;5.624;2023-03-14T02:39:46;11.10;99.90
25450;DHT22;13371;52.080;5.624;2023-03-14T02:42:14;11.30;99.90
25450;DHT22;13371;52.080;5.624;2023-03-14T02:45:33;11.10;99.90
25450;DHT22;13371;52.080;5.624;2023-03-14T02:47:51;11.20;99.90
25450;DHT22;13371;52.080;5.624;2023-03-14T02:50:22;11.30;99.90
25450;DHT22;13371;52.080;5.624;2023-03-14T02:52:50;11.00;99.90
25450;DHT22;13371;52.080;5.624;2023-03-14T02:55:23;10.90;99.90
25450;DHT22;13371;52.080;5.624;2023-03-14T02:57:49;11.00;99.90
25450;DHT22;13371;52.080;5.624;2023-03-14T03:00:15;11.00;99.90
25450;DHT22;13371;52.080;5.624;2023-03-14T03:02:41;11.00;99.90
25450;DHT22;13371;52.080;5.624;2023-03-14T03:05:07;11.00;99.90
25450;DHT22;13371;52.080;5.624;2023-03-14T03:07:32;11.20;99.90
25450;DHT22;13371;52.080;5.624;2023-03-14T03:09:58;11.20;99.90
25450;DHT22;13371;52.080;5.624;2023-03-14T03:12:24;11.20;99.90
25450;DHT22;13371;52.080;5.624;2023-03-14T03:14:49;11.30;99.90
25450;DHT22;13371;52.080;5.624;2023-03-14T03:17:15;11.20;99.90
25450;DHT22;13371;52.080;5.624;2023-03-14T03:19:41;11.10;99.90
25450;DHT22;13371;52.080;5.624;2023-03-14T03:22:06;11.10;99.90
25450;DHT22;13371;52.080;5.624;2023-03-14T03:24:32;11.10;99.90
25450;DHT22;13371;52.080;5.624;2023-03-14T03:26:58;11.20;99.90
25450;DHT22;13371;52.080;5.624;2023-03-14T03:29:23;11.20;99.90
25450;DHT22;13371;52.080;5.624;2023-03-14T03:31:49;11.20;99.90
25450;DHT22;13371;52.080;5.624;2023-03-14T03:34:15;11.20;99.90
25450;DHT22;13371;52.080;5.624;2023-03-14T03:36:40;11.30;99.90
25450;DHT22;13371;52.080;5.624;2023-03-14T03:39:06;11.50;99.90
25450;DHT22;13371;52.080;5.624;2023-03-14T03:41:32;11.50;99.90
25450;DHT22;13371;52.080;5.624;2023-03-14T03:43:58;11.60;99.90
25450;DHT22;13371;52.080;5.624;2023-03-14T03:46:23;11.60;99.90
25450;DHT22;13371;52.080;5.624;2023-03-14T03:48:56;11.40;99.90
25450;DHT22;13371;52.080;5.624;2023-03-14T03:51:21;11.20;99.90
25450;DHT22;13371;52.080;5.624;2023-03-14T03:53:47;11.20;99.90
25450;DHT22;13371;52.080;5.624;2023-03-14T03:56:13;11.20;99.90
25450;DHT22;13371;52.080;5.624;2023-03-14T03:58:38;11.40;99.90
25450;DHT22;13371;52.080;5.624;2023-03-14T04:01:05;11.40;99.90
25450;DHT22;13371;52.080;5.624;2023-03-14T04:03:32;11.30;99.90
25450;DHT22;13371;52.080;5.624;2023-03-14T04:06:10;11.50;99.90
25450;DHT22;13371;52.080;5.624;2023-03-14T04:08:36;11.70;99.90
25450;DHT22;13371;52.080;5.624;2023-03-14T04:11:02;11.80;99.90
25450;DHT22;13371;52.080;5.624;2023-03-14T04:13:28;11.70;99.90
25450;DHT22;13371;52.080;5.624;2023-03-14T04:15:55;11.90;99.90
25450;DHT22;13371;52.080;5.624;2023-03-14T04:18:21;11.70;99.90
25450;DHT22;13371;52.080;5.624;2023-03-14T04:20:52;11.50;99.90
25450;DHT22;13371;52.080;5.624;2023-03-14T04:23:17;11.50;99.90
25450;DHT22;13371;52.080;5.624;2023-03-14T04:25:43;11.30;99.90
25450;DHT22;13371;52.080;5.624;2023-03-14T04:28:09;11.20;99.90
25450;DHT22;13371;52.080;5.624;2023-03-14T04:30:34;11.20;99.90
25450;DHT22;13371;52.080;5.624;2023-03-14T04:33:00;11.30;99.90
25450;DHT22;13371;52.080;5.624;2023-03-14T04:35:26;11.40;99.90
25450;DHT22;13371;52.080;5.624;2023-03-14T04:37:51;11.20;99.90
25450;DHT22;13371;52.080;5.624;2023-03-14T04:40:17;11.20;99.90
25450;DHT22;13371;52.080;5.624;2023-03-14T04:42:43;11.30;99.90
25450;DHT22;13371;52.080;5.624;2023-03-14T04:45:09;11.30;99.90
25450;DHT22;13371;52.080;5.624;2023-03-14T04:47:35;11.30;99.90
25450;DHT22;13371;52.080;5.624;2023-03-14T04:50:01;11.20;99.90
25450;DHT22;13371;52.080;5.624;2023-03-14T04:52:27;11.30;99.90
25450;DHT22;13371;52.080;5.624;2023-03-14T04:54:52;11.50;99.90
25450;DHT22;13371;52.080;5.624;2023-03-14T04:57:18;11.50;99.90
25450;DHT22;13371;52.080;5.624;2023-03-14T04:59:44;11.60;99.90
25450;DHT22;13371;52.080;5.624;2023-03-14T05:02:09;11.70;99.90
25450;DHT22;13371;52.080;5.624;2023-03-14T05:04:35;11.70;99.90
25450;DHT22;13371;52.080;5.624;2023-03-14T05:07:01;11.70;99.90
25450;DHT22;13371;52.080;5.624;2023-03-14T05:09:26;11.30;99.90
25450;DHT22;13371;52.080;5.624;2023-03-14T05:11:52;11.10;99.90
25450;DHT22;13371;52.080;5.624;2023-03-14T05:14:17;11.20;99.90
25450;DHT22;13371;52.080;5.624;2023-03-14T05:16:43;11.40;99.90
25450;DHT22;13371;52.080;5.624;2023-03-14T05:19:10;11.40;99.90
25450;DHT22;13371;52.080;5.624;2023-03-14T05:21:36;11.30;99.90
25450;DHT22;13371;52.080;5.624;2023-03-14T05:24:01;11.40;99.90
25450;DHT22;13371;52.080;5.624;2023-03-14T05:26:27;11.40;99.90
25450;DHT22;13371;52.080;5.624;2023-03-14T05:28:53;11.40;99.90
25450;DHT22;13371;52.080;5.624;2023-03-14T05:31:18;11.30;99.90
25450;DHT22;13371;52.080;5.624;2023-03-14T05:33:44;11.20;99.90
25450;DHT22;13371;52.080;5.624;2023-03-14T05:36:10;11.10;99.90
25450;DHT22;13371;52.080;5.624;2023-03-14T05:38:35;11.10;99.90
25450;DHT22;13371;52.080;5.624;2023-03-14T05:41:01;11.20;99.90
25450;DHT22;13371;52.080;5.624;2023-03-14T05:43:26;11.30;99.90
25450;DHT22;13371;52.080;5.624;2023-03-14T05:45:52;11.20;99.90
25450;DHT22;13371;52.080;5.624;2023-03-14T05:48:18;11.20;99.90
25450;DHT22;13371;52.080;5.624;2023-03-14T05:50:46;11.30;99.90
25450;DHT22;13371;52.080;5.624;2023-03-14T05:53:12;11.20;99.90
25450;DHT22;13371;52.080;5.624;2023-03-14T05:55:38;11.20;99.90
25450;DHT22;13371;52.080;5.624;2023-03-14T05:58:04;11.20;99.90
25450;DHT22;13371;52.080;5.624;2023-03-14T06:00:30;11.10;99.90
25450;DHT22;13371;52.080;5.624;2023-03-14T06:02:55;11.00;99.90
25450;DHT22;13371;52.080;5.624;2023-03-14T06:05:21;10.90;99.90
25450;DHT22;13371;52.080;5.624;2023-03-14T06:07:46;10.90;99.90
25450;DHT22;13371;52.080;5.624;2023-03-14T06:10:12;10.80;99.90
25450;DHT22;13371;52.080;5.624;2023-03-14T06:12:38;11.00;99.90
25450;DHT22;13371;52.080;5.624;2023-03-14T06:15:04;10.90;99.90
25450;DHT22;13371;52.080;5.624;2023-03-14T06:17:29;10.80;99.90
25450;DHT22;13371;52.080;5.624;2023-03-14T06:19:55;11.00;99.90
25450;DHT22;13371;52.080;5.624;2023-03-14T06:22:20;11.00;99.90
25450;DHT22;13371;52.080;5.624;2023-03-14T06:24:46;11.10;99.90
25450;DHT22;13371;52.080;5.624;2023-03-14T06:27:12;11.30;99.90
25450;DHT22;13371;52.080;5.624;2023-03-14T06:29:37;11.40;99.90
25450;DHT22;13371;52.080;5.624;2023-03-14T06:32:03;11.60;99.90
25450;DHT22;13371;52.080;5.624;2023-03-14T06:34:29;11.50;99.90
25450;DHT22;13371;52.080;5.624;2023-03-14T06:36:55;11.40;99.90
25450;DHT22;13371;52.080;5.624;2023-03-14T06:39:20;11.20;99.90
25450;DHT22;13371;52.080;5.624;2023-03-14T06:41:46;11.30;99.90
25450;DHT22;13371;52.080;5.624;2023-03-14T06:44:12;11.30;99.90
25450;DHT22;13371;52.080;5.624;2023-03-14T06:46:38;11.20;99.90
25450;DHT22;13371;52.080;5.624;2023-03-14T06:49:03;11.20;99.90
25450;DHT22;13371;52.080;5.624;2023-03-14T06:51:29;11.30;99.90
25450;DHT22;13371;52.080;5.624;2023-03-14T06:53:54;11.10;99.90
25450;DHT22;13371;52.080;5.624;2023-03-14T06:56:20;11.30;99.90
25450;DHT22;13371;52.080;5.624;2023-03-14T06:58:45;11.10;99.90
25450;DHT22;13371;52.080;5.624;2023-03-14T07:01:31;11.20;99.90
25450;DHT22;13371;52.080;5.624;2023-03-14T07:04:03;11.20;99.90
25450;DHT22;13371;52.080;5.624;2023-03-14T07:06:29;11.40;99.90
25450;DHT22;13371;52.080;5.624;2023-03-14T07:08:55;11.40;99.90
25450;DHT22;13371;52.080;5.624;2023-03-14T07:11:23;11.50;99.90
25450;DHT22;13371;52.080;5.624;2023-03-14T07:13:49;11.40;99.90
25450;DHT22;13371;52.080;5.624;2023-03-14T07:16:14;11.10;99.90
25450;DHT22;13371;52.080;5.624;2023-03-14T07:18:40;11.00;99.90
25450;DHT22;13371;52.080;5.624;2023-03-14T07:21:06;11.00;99.90
25450;DHT22;13371;52.080;5.624;2023-03-14T07:23:32;10.90;99.90
25450;DHT22;13371;52.080;5.624;2023-03-14T07:25:58;10.80;99.90
25450;DHT22;13371;52.080;5.624;2023-03-14T07:28:24;11.00;99.90
25450;DHT22;13371;52.080;5.624;2023-03-14T07:30:49;11.20;99.90
25450;DHT22;13371;52.080;5.624;2023-03-14T07:33:16;11.10;99.90
25450;DHT22;13371;52.080;5.624;2023-03-14T07:35:41;10.90;99.90
25450;DHT22;13371;52.080;5.624;2023-03-14T07:38:07;10.70;99.90
25450;DHT22;13371;52.080;5.624;2023-03-14T07:40:32;10.70;99.90
25450;DHT22;13371;52.080;5.624;2023-03-14T07:42:58;10.80;99.90
25450;DHT22;13371;52.080;5.624;2023-03-14T07:45:24;10.70;99.90
25450;DHT22;13371;52.080;5.624;2023-03-14T07:47:49;10.80;99.90
25450;DHT22;13371;52.080;5.624;2023-03-14T07:50:15;10.80;99.90
25450;DHT22;13371;52.080;5.624;2023-03-14T07:52:41;10.70;99.90
25450;DHT22;13371;52.080;5.624;2023-03-14T07:55:06;10.70;99.90
25450;DHT22;13371;52.080;5.624;2023-03-14T07:57:32;10.60;99.90
25450;DHT22;13371;52.080;5.624;2023-03-14T07:59:58;10.50;99.90
25450;DHT22;13371;52.080;5.624;2023-03-14T08:02:23;10.30;99.90
25450;DHT22;13371;52.080;5.624;2023-03-14T08:04:49;10.20;99.90
25450;DHT22;13371;52.080;5.624;2023-03-14T08:07:16;10.10;99.90
25450;DHT22;13371;52.080;5.624;2023-03-14T08:09:42;10.00;99.90
25450;DHT22;13371;52.080;5.624;2023-03-14T08:12:08;9.90;99.90
25450;DHT22;13371;52.080;5.624;2023-03-14T08:14:33;9.80;99.90
25450;DHT22;13371;52.080;5.624;2023-03-14T08:16:59;9.80;99.90
25450;DHT22;13371;52.080;5.624;2023-03-14T08:19:25;9.80;99.90
25450;DHT22;13371;52.080;5.624;2023-03-14T08:21:50;9.50;99.90
25450;DHT22;13371;52.080;5.624;2023-03-14T08:24:16;9.50;99.90
25450;DHT22;13371;52.080;5.624;2023-03-14T08:26:41;9.00;99.90
25450;DHT22;13371;52.080;5.624;2023-03-14T08:29:07;8.70;99.90
25450;DHT22;13371;52.080;5.624;2023-03-14T08:31:34;8.60;99.90
25450;DHT22;13371;52.080;5.624;2023-03-14T08:34:01;8.70;99.90
25450;DHT22;13371;52.080;5.624;2023-03-14T08:36:27;8.70;99.90
25450;DHT22;13371;52.080;5.624;2023-03-14T08:38:53;8.60;99.90
25450;DHT22;13371;52.080;5.624;2023-03-14T08:41:18;8.30;99.90
25450;DHT22;13371;52.080;5.624;2023-03-14T08:43:44;8.40;99.90
25450;DHT22;13371;52.080;5.624;2023-03-14T08:46:09;8.10;99.90
25450;DHT22;13371;52.080;5.624;2023-03-14T08:48:35;7.80;99.90
25450;DHT22;13371;52.080;5.624;2023-03-14T08:51:12;7.80;99.90
25450;DHT22;13371;52.080;5.624;2023-03-14T08:53:41;7.70;99.90
25450;DHT22;13371;52.080;5.624;2023-03-14T08:56:07;7.70;99.90
25450;DHT22;13371;52.080;5.624;2023-03-14T08:58:35;7.70;99.90
25450;DHT22;13371;52.080;5.624;2023-03-14T09:01:07;7.80;99.90
25450;DHT22;13371;52.080;5.624;2023-03-14T09:03:33;8.20;99.90
25450;DHT22;13371;52.080;5.624;2023-03-14T09:06:03;8.30;99.90
25450;DHT22;13371;52.080;5.624;2023-03-14T09:08:29;8.10;99.90
25450;DHT22;13371;52.080;5.624;2023-03-14T09:10:55;8.30;99.90
25450;DHT22;13371;52.080;5.624;2023-03-14T09:13:21;8.10;99.90
25450;DHT22;13371;52.080;5.624;2023-03-14T09:15:53;8.30;99.90
25450;DHT22;13371;52.080;5.624;2023-03-14T09:18:20;8.40;99.90
25450;DHT22;13371;52.080;5.624;2023-03-14T09:20:45;8.50;99.90
25450;DHT22;13371;52.080;5.624;2023-03-14T09:23:11;8.40;99.90
25450;DHT22;13371;52.080;5.624;2023-03-14T09:25:36;8.50;99.90
25450;DHT22;13371;52.080;5.624;2023-03-14T09:28:02;8.40;99.90
25450;DHT22;13371;52.080;5.624;2023-03-14T09:30:28;8.20;99.90
25450;DHT22;13371;52.080;5.624;2023-03-14T09:32:54;8.10;99.90
25450;DHT22;13371;52.080;5.624;2023-03-14T09:35:19;8.10;99.90
25450;DHT22;13371;52.080;5.624;2023-03-14T09:37:45;8.40;99.90
25450;DHT22;13371;52.080;5.624;2023-03-14T09:40:13;8.60;99.90
25450;DHT22;13371;52.080;5.624;2023-03-14T09:42:39;8.60;99.90
25450;DHT22;13371;52.080;5.624;2023-03-14T09:45:15;8.20;99.90
25450;DHT22;13371;52.080;5.624;2023-03-14T09:47:41;8.30;99.90
25450;DHT22;13371;52.080;5.624;2023-03-14T09:50:13;8.50;99.90
25450;DHT22;13371;52.080;5.624;2023-03-14T09:52:44;8.80;99.90
25450;DHT22;13371;52.080;5.624;2023-03-14T09:55:14;8.90;99.90
25450;DHT22;13371;52.080;5.624;2023-03-14T09:57:42;9.00;99.90
25450;DHT22;13371;52.080;5.624;2023-03-14T10:00:23;8.90;99.90
25450;DHT22;13371;52.080;5.624;2023-03-14T10:03:14;8.60;99.90
25450;DHT22;13371;52.080;5.624;2023-03-14T10:05:45;8.40;99.90
25450;DHT22;13371;52.080;5.624;2023-03-14T10:08:12;8.60;99.90
25450;DHT22;13371;52.080;5.624;2023-03-14T10:10:38;8.50;99.90
25450;DHT22;13371;52.080;5.624;2023-03-14T10:15:36;8.40;99.90
25450;DHT22;13371;52.080;5.624;2023-03-14T10:18:05;8.20;99.90
25450;DHT22;13371;52.080;5.624;2023-03-14T10:20:40;8.20;99.90
25450;DHT22;13371;52.080;5.624;2023-03-14T10:25:43;8.40;99.90
25450;DHT22;13371;52.080;5.624;2023-03-14T10:28:27;8.60;99.90
25450;DHT22;13371;52.080;5.624;2023-03-14T10:30:54;8.80;99.90
25450;DHT22;13371;52.080;5.624;2023-03-14T10:33:20;8.70;99.90
25450;DHT22;13371;52.080;5.624;2023-03-14T10:35:59;8.60;99.90
25450;DHT22;13371;52.080;5.624;2023-03-14T10:38:30;8.50;99.90
25450;DHT22;13371;52.080;5.624;2023-03-14T10:40:57;8.30;99.90
25450;DHT22;13371;52.080;5.624;2023-03-14T10:43:31;8.20;99.90
25450;DHT22;13371;52.080;5.624;2023-03-14T10:46:06;8.00;99.90
25450;DHT22;13371;52.080;5.624;2023-03-14T10:48:35;8.20;99.90
25450;DHT22;13371;52.080;5.624;2023-03-14T10:51:18;8.20;99.90
25450;DHT22;13371;52.080;5.624;2023-03-14T10:56:12;8.20;99.90
25450;DHT22;13371;52.080;5.624;2023-03-14T10:58:48;8.30;99.90
25450;DHT22;13371;52.080;5.624;2023-03-14T11:01:48;8.60;99.90
25450;DHT22;13371;52.080;5.624;2023-03-14T11:10:02;8.60;99.90
25450;DHT22;13371;52.080;5.624;2023-03-14T11:15:11;8.40;99.90
25450;DHT22;13371;52.080;5.624;2023-03-14T11:18:18;8.60;99.90
25450;DHT22;13371;52.080;5.624;2023-03-14T11:21:11;8.80;99.90
25450;DHT22;13371;52.080;5.624;2023-03-14T11:23:43;8.90;99.90
25450;DHT22;13371;52.080;5.624;2023-03-14T11:29:39;8.40;99.90
25450;DHT22;13371;52.080;5.624;2023-03-14T11:32:43;8.30;99.60
25450;DHT22;13371;52.080;5.624;2023-03-14T11:35:56;8.40;99.90
25450;DHT22;13371;52.080;5.624;2023-03-14T11:38:37;8.90;99.90
25450;DHT22;13371;52.080;5.624;2023-03-14T11:41:04;9.30;97.90
25450;DHT22;13371;52.080;5.624;2023-03-14T11:43:36;9.70;98.00
25450;DHT22;13371;52.080;5.624;2023-03-14T11:46:15;10.10;96.30
25450;DHT22;13371;52.080;5.624;2023-03-14T11:51:46;11.20;95.10
25450;DHT22;13371;52.080;5.624;2023-03-14T11:57:11;10.60;93.40
25450;DHT22;13371;52.080;5.624;2023-03-14T12:02:25;10.70;93.50
25450;DHT22;13371;52.080;5.624;2023-03-14T12:10:19;12.00;89.70
25450;DHT22;13371;52.080;5.624;2023-03-14T12:12:45;12.00;90.80
25450;DHT22;13371;52.080;5.624;2023-03-14T12:15:20;11.60;87.30
25450;DHT22;13371;52.080;5.624;2023-03-14T12:17:46;11.50;91.10
25450;DHT22;13371;52.080;5.624;2023-03-14T12:20:21;11.80;86.60
25450;DHT22;13371;52.080;5.624;2023-03-14T12:22:53;12.00;86.90
25450;DHT22;13371;52.080;5.624;2023-03-14T12:25:22;12.10;82.60
25450;DHT22;13371;52.080;5.624;2023-03-14T12:28:03;12.40;84.00
25450;DHT22;13371;52.080;5.624;2023-03-14T12:30:38;12.80;84.90
25450;DHT22;13371;52.080;5.624;2023-03-14T12:33:29;12.80;81.80
25450;DHT22;13371;52.080;5.624;2023-03-14T12:36:00;12.70;81.80
25450;DHT22;13371;52.080;5.624;2023-03-14T12:38:49;12.70;84.00
25450;DHT22;13371;52.080;5.624;2023-03-14T12:41:44;12.90;85.10
25450;DHT22;13371;52.080;5.624;2023-03-14T12:47:00;13.00;79.30
25450;DHT22;13371;52.080;5.624;2023-03-14T12:49:33;13.00;79.90
25450;DHT22;13371;52.080;5.624;2023-03-14T12:52:01;13.00;77.60
25450;DHT22;13371;52.080;5.624;2023-03-14T12:54:40;12.60;75.30
25450;DHT22;13371;52.080;5.624;2023-03-14T12:57:24;12.00;75.30
25450;DHT22;13371;52.080;5.624;2023-03-14T12:59:57;11.60;78.40
25450;DHT22;13371;52.080;5.624;2023-03-14T13:02:38;11.40;81.70
25450;DHT22;13371;52.080;5.624;2023-03-14T13:05:18;11.60;81.30
25450;DHT22;13371;52.080;5.624;2023-03-14T13:15:45;12.00;79.10
25450;DHT22;13371;52.080;5.624;2023-03-14T13:18:16;12.20;75.70
25450;DHT22;13371;52.080;5.624;2023-03-14T13:21:02;12.00;75.40
25450;DHT22;13371;52.080;5.624;2023-03-14T13:23:31;12.10;74.90
25450;DHT22;13371;52.080;5.624;2023-03-14T13:25:58;12.00;77.70
25450;DHT22;13371;52.080;5.624;2023-03-14T13:28:24;11.90;76.60
25450;DHT22;13371;52.080;5.624;2023-03-14T13:30:58;12.00;72.30
25450;DHT22;13371;52.080;5.624;2023-03-14T13:33:24;12.00;73.10
25450;DHT22;13371;52.080;5.624;2023-03-14T13:35:56;12.10;75.00
25450;DHT22;13371;52.080;5.624;2023-03-14T13:38:27;12.10;75.90
25450;DHT22;13371;52.080;5.624;2023-03-14T13:40:58;12.20;76.90
25450;DHT22;13371;52.080;5.624;2023-03-14T13:43:39;12.50;76.20
25450;DHT22;13371;52.080;5.624;2023-03-14T13:46:20;12.40;74.00
25450;DHT22;13371;52.080;5.624;2023-03-14T13:48:49;12.20;76.00
25450;DHT22;13371;52.080;5.624;2023-03-14T13:51:19;12.20;77.70
25450;DHT22;13371;52.080;5.624;2023-03-14T13:56:14;12.30;70.40
25450;DHT22;13371;52.080;5.624;2023-03-14T13:58:41;12.10;70.90
25450;DHT22;13371;52.080;5.624;2023-03-14T14:01:14;11.80;74.00
25450;DHT22;13371;52.080;5.624;2023-03-14T14:03:42;12.00;76.80
25450;DHT22;13371;52.080;5.624;2023-03-14T14:06:36;12.60;75.50
25450;DHT22;13371;52.080;5.624;2023-03-14T14:09:17;13.00;72.40
25450;DHT22;13371;52.080;5.624;2023-03-14T14:14:52;13.20;70.90
25450;DHT22;13371;52.080;5.624;2023-03-14T14:17:25;12.70;69.50
25450;DHT22;13371;52.080;5.624;2023-03-14T14:19:53;12.40;69.00
25450;DHT22;13371;52.080;5.624;2023-03-14T14:22:20;12.40;69.80
25450;DHT22;13371;52.080;5.624;2023-03-14T14:24:46;12.20;71.40
25450;DHT22;13371;52.080;5.624;2023-03-14T14:27:24;12.20;69.00
25450;DHT22;13371;52.080;5.624;2023-03-14T14:32:49;11.20;70.60
25450;DHT22;13371;52.080;5.624;2023-03-14T14:37:49;10.40;73.10
25450;DHT22;13371;52.080;5.624;2023-03-14T14:40:20;10.10;72.80
25450;DHT22;13371;52.080;5.624;2023-03-14T14:42:47;10.00;72.80
25450;DHT22;13371;52.080;5.624;2023-03-14T14:45:18;9.90;74.40
25450;DHT22;13371;52.080;5.624;2023-03-14T14:48:04;9.90;74.40
25450;DHT22;13371;52.080;5.624;2023-03-14T14:50:39;9.70;72.60
25450;DHT22;13371;52.080;5.624;2023-03-14T14:55:55;10.00;77.20
25450;DHT22;13371;52.080;5.624;2023-03-14T15:01:12;9.80;77.60
25450;DHT22;13371;52.080;5.624;2023-03-14T15:03:42;9.90;75.30
25450;DHT22;13371;52.080;5.624;2023-03-14T15:06:11;9.90;75.60
25450;DHT22;13371;52.080;5.624;2023-03-14T15:08:37;10.00;79.30
25450;DHT22;13371;52.080;5.624;2023-03-14T15:11:03;9.90;75.80
25450;DHT22;13371;52.080;5.624;2023-03-14T15:13:28;9.80;77.20
25450;DHT22;13371;52.080;5.624;2023-03-14T15:15:54;9.90;78.60
25450;DHT22;13371;52.080;5.624;2023-03-14T15:18:24;9.90;76.90
25450;DHT22;13371;52.080;5.624;2023-03-14T15:20:51;9.90;76.90
25450;DHT22;13371;52.080;5.624;2023-03-14T15:23:19;9.70;77.90
25450;DHT22;13371;52.080;5.624;2023-03-14T15:25:45;9.60;77.30
25450;DHT22;13371;52.080;5.624;2023-03-14T15:28:21;9.50;77.90
25450;DHT22;13371;52.080;5.624;2023-03-14T15:30:49;9.30;78.50
25450;DHT22;13371;52.080;5.624;2023-03-14T15:33:15;9.20;77.90
25450;DHT22;13371;52.080;5.624;2023-03-14T15:35:42;9.10;78.20
25450;DHT22;13371;52.080;5.624;2023-03-14T15:38:14;9.20;79.00
25450;DHT22;13371;52.080;5.624;2023-03-14T15:40:40;9.30;78.20
25450;DHT22;13371;52.080;5.624;2023-03-14T15:43:06;9.40;78.10
25450;DHT22;13371;52.080;5.624;2023-03-14T15:45:32;9.20;76.50
25450;DHT22;13371;52.080;5.624;2023-03-14T15:47:57;9.30;77.10
25450;DHT22;13371;52.080;5.624;2023-03-14T15:50:23;9.20;76.00
25450;DHT22;13371;52.080;5.624;2023-03-14T15:52:50;9.10;76.90
25450;DHT22;13371;52.080;5.624;2023-03-14T15:55:16;9.00;79.50
25450;DHT22;13371;52.080;5.624;2023-03-14T15:57:43;9.10;77.00
25450;DHT22;13371;52.080;5.624;2023-03-14T16:00:12;9.10;77.00
25450;DHT22;13371;52.080;5.624;2023-03-14T16:02:43;8.90;76.40
25450;DHT22;13371;52.080;5.624;2023-03-14T16:05:09;9.00;77.70
25450;DHT22;13371;52.080;5.624;2023-03-14T16:07:35;8.90;77.60
25450;DHT22;13371;52.080;5.624;2023-03-14T16:10:02;8.80;79.30
25450;DHT22;13371;52.080;5.624;2023-03-14T16:12:28;8.80;77.20
25450;DHT22;13371;52.080;5.624;2023-03-14T16:14:54;8.70;78.10
25450;DHT22;13371;52.080;5.624;2023-03-14T16:17:20;8.80;77.90
25450;DHT22;13371;52.080;5.624;2023-03-14T16:19:45;8.80;75.90
25450;DHT22;13371;52.080;5.624;2023-03-14T16:22:12;8.90;76.10
25450;DHT22;13371;52.080;5.624;2023-03-14T16:24:37;9.00;76.70
25450;DHT22;13371;52.080;5.624;2023-03-14T16:27:03;9.00;78.10
25450;DHT22;13371;52.080;5.624;2023-03-14T16:29:29;9.10;77.70
25450;DHT22;13371;52.080;5.624;2023-03-14T16:31:55;9.20;75.50
25450;DHT22;13371;52.080;5.624;2023-03-14T16:34:21;9.10;77.80
25450;DHT22;13371;52.080;5.624;2023-03-14T16:36:46;9.30;77.10
25450;DHT22;13371;52.080;5.624;2023-03-14T16:39:12;9.30;76.20
25450;DHT22;13371;52.080;5.624;2023-03-14T16:41:38;9.30;77.30
25450;DHT22;13371;52.080;5.624;2023-03-14T16:44:03;9.40;76.20
25450;DHT22;13371;52.080;5.624;2023-03-14T16:46:29;9.50;75.60
25450;DHT22;13371;52.080;5.624;2023-03-14T16:48:55;9.40;78.40
25450;DHT22;13371;52.080;5.624;2023-03-14T16:51:22;9.50;77.10
25450;DHT22;13371;52.080;5.624;2023-03-14T16:53:48;9.50;78.70
25450;DHT22;13371;52.080;5.624;2023-03-14T16:56:14;9.50;77.80
25450;DHT22;13371;52.080;5.624;2023-03-14T16:58:40;9.40;78.10
25450;DHT22;13371;52.080;5.624;2023-03-14T17:01:07;9.20;78.90